Time;durP1;ratioP1;P1;durP2;ratioP2;P2;SDS_P1;SDS_P2;PMS_P1;PMS_P2;Temp;Humidity;BMP_temperature;BMP_pressure;BME280_temperature;BME280_humidity;BME280_pressure;Samples;Min_cycle;Max_cycle;Signal;HPM_P1;HPM_P2
2021/08/15 00:00:24;;;;;;;12.75;8.18;;;;;;;25.55;61.34;100295.81;5116104;28;20067;-74
2021/08/15 00:02:52;;;;;;;12.10;8.25;;;;;;;25.45;62.18;100306.19;5115664;28;20093;-73
2021/08/15 00:05:21;;;;;;;14.20;8.63;;;;;;;25.40;62.33;100303.19;5115515;28;20442;-74
2021/08/15 00:07:52;;;;;;;16.30;8.32;;;;;;;25.40;62.49;100303.19;5115320;28;20067;-76
2021/08/15 00:10:21;;;;;;;13.15;8.95;;;;;;;25.45;62.33;100299.88;5115619;28;20134;-74
2021/08/15 00:12:49;;;;;;;15.80;8.32;;;;;;;25.36;62.84;100290.91;5115649;28;20043;-73
2021/08/15 00:15:19;;;;;;;14.57;8.43;;;;;;;25.09;63.66;100293.25;5115102;28;20040;-73
2021/08/15 00:17:47;;;;;;;16.77;8.80;;;;;;;24.91;64.37;100276.34;5097449;28;20449;-73
2021/08/15 00:20:16;;;;;;;16.38;8.90;;;;;;;25.09;64.16;100285.06;5114864;28;20825;-73
2021/08/15 00:22:45;;;;;;;16.92;9.27;;;;;;;25.08;64.11;100272.44;5096928;28;20048;-73
2021/08/15 00:25:17;;;;;;;12.02;8.15;;;;;;;25.05;64.18;100278.28;5114940;28;20063;-73
2021/08/15 00:27:45;;;;;;;13.33;8.87;;;;;;;24.91;64.85;100268.16;5115459;28;20035;-73
2021/08/15 00:30:16;;;;;;;15.98;9.23;;;;;;;24.95;64.66;100277.66;5114634;28;20036;-73
2021/08/15 00:32:46;;;;;;;13.73;8.23;;;;;;;24.92;64.85;100272.56;5115232;28;20071;-73
2021/08/15 00:35:14;;;;;;;13.20;8.85;;;;;;;24.80;65.62;100269.44;5114532;28;20040;-73
2021/08/15 00:37:42;;;;;;;14.15;8.32;;;;;;;24.69;66.41;100277.19;5114558;28;20074;-74
2021/08/15 00:40:12;;;;;;;12.77;8.60;;;;;;;24.60;66.71;100279.13;5114377;28;20506;-74
2021/08/15 00:42:42;;;;;;;16.23;9.15;;;;;;;24.58;67.33;100272.16;5114887;28;20058;-74
2021/08/15 00:45:11;;;;;;;16.48;9.00;;;;;;;24.69;66.47;100277.19;5114562;28;20067;-72
2021/08/15 00:47:40;;;;;;;11.25;8.05;;;;;;;24.61;66.90;100274.53;5114654;28;20146;-73
2021/08/15 00:50:09;;;;;;;13.60;8.90;;;;;;;24.55;67.24;100276.97;5114422;28;20484;-73
2021/08/15 00:52:38;;;;;;;13.13;8.50;;;;;;;24.48;67.53;100277.88;5114528;28;20051;-73
2021/08/15 00:55:09;;;;;;;15.98;9.35;;;;;;;24.56;67.00;100269.63;5114358;28;20486;-73
2021/08/15 00:57:41;;;;;;;15.68;9.05;;;;;;;24.77;66.10;100269.78;5114592;28;20130;-72
2021/08/15 01:00:14;;;;;;;14.70;8.90;;;;;;;24.84;65.56;100272.66;5113982;28;20082;-73
2021/08/15 01:02:45;;;;;;;15.80;8.82;;;;;;;24.71;66.48;100269.69;5114234;28;20122;-73
2021/08/15 01:05:13;;;;;;;13.32;9.05;;;;;;;24.45;67.07;100268.19;5114211;28;20039;-73
2021/08/15 01:07:44;;;;;;;14.20;9.50;;;;;;;24.34;67.48;100268.59;5096006;28;20085;-72
2021/08/15 01:10:14;;;;;;;14.70;9.95;;;;;;;24.39;67.11;100270.78;5113912;28;20050;-72
2021/08/15 01:12:42;;;;;;;17.05;9.80;;;;;;;24.51;66.26;100270.19;5114420;28;20052;-72
2021/08/15 01:15:13;;;;;;;15.40;9.25;;;;;;;24.43;66.51;100269.41;5114016;28;20039;-72
2021/08/15 01:17:42;;;;;;;13.48;9.10;;;;;;;24.44;66.68;100271.09;5114147;28;20039;-72
2021/08/15 01:20:11;;;;;;;13.23;9.02;;;;;;;24.42;66.63;100264.97;5113722;28;20043;-72
2021/08/15 01:22:41;;;;;;;15.13;9.50;;;;;;;24.42;66.80;100268.56;5114141;28;20050;-72
2021/08/15 01:25:10;;;;;;;15.18;9.48;;;;;;;24.25;67.48;100264.22;5113510;28;20040;-72
2021/08/15 01:27:42;;;;;;;13.20;9.32;;;;;;;24.14;68.41;100262.75;5113878;28;20404;-72
2021/08/15 01:30:14;;;;;;;13.60;9.23;;;;;;;24.09;68.70;100264.31;5113786;28;20047;-72
2021/08/15 01:32:44;;;;;;;15.67;9.77;;;;;;;24.09;68.28;100264.31;5114146;28;20043;-72
2021/08/15 01:35:15;;;;;;;12.93;9.02;;;;;;;24.22;67.56;100264.53;5113324;28;20300;-74
2021/08/15 01:37:43;;;;;;;14.15;9.80;;;;;;;24.02;68.24;100257.88;5113651;28;20050;-74
2021/08/15 01:40:13;;;;;;;14.70;9.43;;;;;;;24.09;68.16;100253.41;5113544;28;20068;-74
2021/08/15 01:42:41;;;;;;;14.15;9.57;;;;;;;24.18;67.43;100258.63;5113667;28;20047;-73
2021/08/15 01:45:13;;;;;;;15.57;9.60;;;;;;;24.22;67.51;100254.53;5113317;28;20571;-74
2021/08/15 01:47:41;;;;;;;15.57;9.73;;;;;;;24.08;68.11;100251.72;5113653;28;20119;-74
2021/08/15 01:50:11;;;;;;;14.20;9.35;;;;;;;24.10;68.28;100244.19;5112488;28;20067;-74
2021/08/15 01:52:39;;;;;;;16.98;9.85;;;;;;;23.96;68.98;100246.66;5113731;28;20047;-74
2021/08/15 01:55:10;;;;;;;15.35;10.15;;;;;;;23.88;69.43;100252.16;5113201;28;20489;-74
2021/08/15 01:57:38;;;;;;;13.88;9.27;;;;;;;23.77;69.59;100238.09;5113561;28;20053;-74
2021/08/15 02:00:07;;;;;;;14.35;9.48;;;;;;;23.66;70.15;100242.06;5113176;28;20438;-74
2021/08/15 02:02:40;;;;;;;15.00;10.07;;;;;;;23.73;69.90;100247.63;5113234;28;20047;-74
2021/08/15 02:05:10;;;;;;;15.10;9.73;;;;;;;23.79;69.79;100242.31;5113110;28;20468;-74
2021/08/15 02:07:38;;;;;;;17.55;10.25;;;;;;;23.54;70.69;100236.09;5113566;28;20050;-74
2021/08/15 02:10:07;;;;;;;20.88;9.95;;;;;;;23.49;71.24;100234.94;5113116;28;20039;-74
2021/08/15 02:12:36;;;;;;;13.75;9.90;;;;;;;23.51;71.19;100233.75;5113362;28;20051;-74
2021/08/15 02:15:04;;;;;;;15.77;10.02;;;;;;;23.58;70.76;100228.44;5113041;28;20040;-75
2021/08/15 02:17:33;;;;;;;13.30;9.27;;;;;;;23.59;70.50;100224.72;5113366;28;20075;-74
2021/08/15 02:20:04;;;;;;;13.48;9.45;;;;;;;23.61;70.25;100228.13;5113177;28;20046;-74
2021/08/15 02:22:32;;;;;;;14.43;9.68;;;;;;;23.61;70.29;100231.69;5113678;28;20139;-74
2021/08/15 02:25:00;;;;;;;17.45;9.23;;;;;;;23.37;71.54;100231.78;5113433;28;20197;-74
2021/08/15 02:27:29;;;;;;;17.45;9.60;;;;;;;23.42;71.27;100230.19;5113004;28;20074;-74
2021/08/15 02:29:57;;;;;;;15.80;10.07;;;;;;;23.31;71.60;100227.00;5113454;28;20096;-73
2021/08/15 02:32:25;;;;;;;13.27;9.52;;;;;;;23.24;72.22;100229.56;5112948;28;20040;-74
2021/08/15 02:34:54;;;;;;;14.48;9.65;;;;;;;23.21;72.08;100232.66;5113201;28;20056;-75
2021/08/15 02:37:24;;;;;;;14.85;9.40;;;;;;;23.10;72.68;100228.44;5094919;28;20408;-71
2021/08/15 02:39:58;;;;;;;14.32;9.45;;;;;;;23.17;72.51;100231.31;5113655;28;20048;-71
2021/08/15 02:42:27;;;;;;;17.23;9.80;;;;;;;23.19;72.42;100228.41;5112916;28;20036;-71
2021/08/15 02:44:56;;;;;;;14.88;9.10;;;;;;;23.26;71.97;100238.44;5113353;28;20050;-71
2021/08/15 02:47:24;;;;;;;14.65;9.35;;;;;;;23.31;71.33;100230.59;5095003;28;20256;-71
2021/08/15 02:49:53;;;;;;;16.05;9.00;;;;;;;23.32;70.42;100226.84;5113088;28;20044;-71
2021/08/15 02:52:22;;;;;;;13.60;9.65;;;;;;;23.34;70.28;100227.50;5112663;28;20040;-73
2021/08/15 02:54:50;;;;;;;13.13;9.38;;;;;;;23.26;70.97;100233.00;5112849;28;20104;-73
2021/08/15 02:57:18;;;;;;;12.48;9.27;;;;;;;23.09;71.32;100228.63;5094279;28;20056;-72
2021/08/15 02:59:47;;;;;;;15.30;9.15;;;;;;;23.03;71.71;100232.00;5113009;28;20039;-72
2021/08/15 03:02:17;;;;;;;15.45;9.35;;;;;;;22.94;72.22;100233.91;5115780;28;20047;-74
2021/08/15 03:04:46;;;;;;;13.98;10.23;;;;;;;22.98;72.02;100231.69;5116744;28;20040;-73
2021/08/15 03:07:15;;;;;;;16.00;9.75;;;;;;;22.80;72.44;100229.13;5116270;28;20039;-73
2021/08/15 03:09:46;;;;;;;16.50;9.77;;;;;;;22.89;72.14;100239.03;5116846;28;20036;-73
2021/08/15 03:12:14;;;;;;;12.30;9.60;;;;;;;22.91;72.09;100236.13;5116494;28;20053;-73
2021/08/15 03:14:43;;;;;;;14.05;9.98;;;;;;;22.74;73.01;100235.25;5116413;28;20047;-73
2021/08/15 03:17:12;;;;;;;15.35;9.25;;;;;;;22.70;72.94;100240.19;5116123;28;20507;-74
2021/08/15 03:19:40;;;;;;;17.42;10.07;;;;;;;22.57;73.82;100229.81;5116616;28;20050;-74
2021/08/15 03:22:08;;;;;;;15.18;9.88;;;;;;;22.50;74.03;100233.41;5116191;28;20046;-74
2021/08/15 03:24:39;;;;;;;15.57;9.48;;;;;;;22.60;73.98;100228.66;5116432;28;20119;-74
2021/08/15 03:27:08;;;;;;;15.90;10.10;;;;;;;22.79;73.20;100233.72;5116424;28;20126;-77
2021/08/15 03:29:37;;;;;;;13.27;9.60;;;;;;;22.92;72.63;100232.38;5116537;28;20089;-73
2021/08/15 03:32:06;;;;;;;15.45;9.85;;;;;;;22.91;72.43;100228.81;5115999;28;20067;-73
2021/08/15 03:34:34;;;;;;;14.98;10.07;;;;;;;22.83;72.81;100234.22;5115769;28;20067;-73
2021/08/15 03:37:02;;;;;;;16.30;9.45;;;;;;;22.90;72.52;100226.28;5116347;28;20066;-74
2021/08/15 03:39:31;;;;;;;14.25;9.35;;;;;;;22.75;73.15;100231.50;5115958;28;20044;-74
2021/08/15 03:41:59;;;;;;;16.55;9.35;;;;;;;22.83;72.62;100234.22;5115856;28;20043;-74
2021/08/15 03:44:31;;;;;;;12.43;8.73;;;;;;;22.91;72.45;100226.09;5115765;28;20531;-73
2021/08/15 03:47:00;;;;;;;19.10;9.93;;;;;;;22.83;72.90;100228.78;5115960;28;20089;-72
2021/08/15 03:49:28;;;;;;;15.15;9.27;;;;;;;22.86;72.79;100225.75;5115656;28;20073;-73
2021/08/15 03:51:57;;;;;;;15.00;9.48;;;;;;;22.83;73.05;100228.78;5097641;28;20047;-72
2021/08/15 03:54:26;;;;;;;15.65;9.45;;;;;;;22.80;73.28;100226.41;5115327;28;20473;-72
2021/08/15 03:56:54;;;;;;;15.07;9.38;;;;;;;22.63;73.92;100217.41;5115629;28;20054;-73
2021/08/15 03:59:23;;;;;;;16.80;9.70;;;;;;;22.57;74.54;100228.97;5115259;28;20044;-73
2021/08/15 04:01:52;;;;;;;15.23;9.60;;;;;;;22.70;74.56;100223.88;5115703;28;20054;-73
2021/08/15 04:04:20;;;;;;;14.32;9.77;;;;;;;22.74;74.39;100230.66;5097323;28;20082;-73
2021/08/15 04:06:49;;;;;;;15.55;9.15;;;;;;;22.82;74.24;100227.09;5115608;28;20420;-73
2021/08/15 04:09:17;;;;;;;16.10;9.10;;;;;;;22.95;74.01;100234.75;5115254;28;20399;-73
2021/08/15 04:11:45;;;;;;;14.75;9.00;;;;;;;23.05;71.97;100227.25;5115296;28;20442;-72
2021/08/15 04:14:13;;;;;;;12.95;8.15;;;;;;;23.03;72.86;100223.84;5114247;28;20048;-71
2021/08/15 04:16:41;;;;;;;13.25;8.75;;;;;;;23.22;71.15;100234.34;5115260;28;20031;-71
2021/08/15 04:19:11;;;;;;;17.10;8.27;;;;;;;23.33;70.45;100224.97;5115562;28;20075;-71
2021/08/15 04:21:39;;;;;;;13.27;8.07;;;;;;;23.40;70.02;100224.09;5115165;28;20044;-71
2021/08/15 04:24:07;;;;;;;12.75;8.70;;;;;;;23.51;70.50;100222.84;5115059;28;20097;-72
2021/08/15 04:26:36;;;;;;;13.05;7.82;;;;;;;23.65;69.62;100230.31;5096951;28;20503;-72
2021/08/15 04:29:04;;;;;;;12.77;8.60;;;;;;;23.73;68.88;100229.41;5115438;28;20043;-73
2021/08/15 04:31:32;;;;;;;13.35;8.60;;;;;;;24.09;67.93;100237.06;5096687;28;20465;-72
2021/08/15 04:34:00;;;;;;;12.95;8.50;;;;;;;24.42;66.69;100233.13;5115048;28;20403;-73
2021/08/15 04:36:30;;;;;;;13.45;7.82;;;;;;;24.76;64.84;100226.34;5114441;28;20055;-74
2021/08/15 04:38:58;;;;;;;12.57;8.40;;;;;;;24.94;63.60;100229.56;5114815;28;20074;-74
2021/08/15 04:41:26;;;;;;;11.20;8.23;;;;;;;25.23;63.12;100226.06;5114615;28;20039;-74
2021/08/15 04:43:54;;;;;;;10.13;8.32;;;;;;;25.17;62.91;100221.34;5114796;28;20074;-73
2021/08/15 04:46:22;;;;;;;13.00;8.25;;;;;;;25.06;63.30;100225.38;5114327;28;20441;-74
2021/08/15 04:48:53;;;;;;;12.85;8.18;;;;;;;25.24;63.02;100226.91;5114730;28;20131;-72
2021/08/15 04:51:21;;;;;;;13.60;7.93;;;;;;;25.58;61.61;100218.16;5114145;28;20424;-73
2021/08/15 04:53:50;;;;;;;14.63;7.88;;;;;;;25.78;61.11;100221.16;5114789;28;20054;-73
2021/08/15 04:56:18;;;;;;;12.48;8.02;;;;;;;25.62;60.96;100219.44;5114419;28;20047;-73
2021/08/15 04:58:47;;;;;;;10.88;7.75;;;;;;;25.59;60.91;100228.03;5114718;28;20551;-74
2021/08/15 05:01:15;;;;;;;14.60;8.20;;;;;;;25.52;60.48;100230.66;5114132;28;20476;-72
2021/08/15 05:03:44;;;;;;;12.00;7.32;;;;;;;25.45;60.28;100224.25;5096258;28;20138;-71
2021/08/15 05:06:12;;;;;;;12.40;7.70;;;;;;;25.45;60.25;100232.44;5114294;28;20138;-72
2021/08/15 05:08:40;;;;;;;12.13;7.22;;;;;;;25.46;59.80;100236.88;5114157;28;20104;-72
2021/08/15 05:11:10;;;;;;;13.30;7.35;;;;;;;25.50;59.99;100232.75;5114526;28;20122;-72
2021/08/15 05:13:38;;;;;;;12.73;7.03;;;;;;;25.61;58.97;100229.53;5113919;28;20044;-73
2021/08/15 05:16:06;;;;;;;14.05;7.90;;;;;;;25.71;58.11;100228.41;5114149;28;20047;-72
2021/08/15 05:18:35;;;;;;;11.30;7.78;;;;;;;25.71;58.81;100231.16;5113725;28;20048;-72
2021/08/15 05:21:03;;;;;;;12.23;7.47;;;;;;;25.81;58.66;100224.34;5113939;28;20040;-72
2021/08/15 05:23:31;;;;;;;12.05;7.47;;;;;;;25.86;58.52;100227.34;5113822;28;20040;-73
2021/08/15 05:26:00;;;;;;;13.30;7.80;;;;;;;25.94;59.80;100237.31;5114133;28;20097;-73
2021/08/15 05:28:29;;;;;;;14.40;8.98;;;;;;;26.07;59.40;100229.28;5113647;28;20046;-73
2021/08/15 05:30:58;;;;;;;17.00;8.55;;;;;;;26.27;59.46;100228.66;5113911;28;20054;-73
2021/08/15 05:33:26;;;;;;;14.52;8.82;;;;;;;26.41;59.11;100241.44;5113334;28;20046;-73
2021/08/15 05:35:54;;;;;;;13.20;8.80;;;;;;;26.49;58.63;100241.31;5113764;28;20054;-73
2021/08/15 05:38:22;;;;;;;15.15;8.90;;;;;;;26.79;57.88;100234.63;5113512;28;20123;-73
2021/08/15 05:40:50;;;;;;;12.40;9.00;;;;;;;27.01;57.19;100238.16;5113738;28;20044;-73
2021/08/15 05:43:18;;;;;;;12.52;8.75;;;;;;;27.27;55.86;100229.31;5113269;28;20050;-73
2021/08/15 05:45:48;;;;;;;14.52;9.18;;;;;;;27.43;55.46;100236.38;5113901;28;20480;-73
2021/08/15 05:48:17;;;;;;;14.82;8.77;;;;;;;27.65;54.52;100234.38;5113652;28;20036;-77
2021/08/15 05:50:46;;;;;;;13.55;8.50;;;;;;;27.79;53.97;100241.63;5096084;28;20053;-73
2021/08/15 05:53:14;;;;;;;13.25;8.77;;;;;;;27.87;53.44;100235.97;5113619;28;20055;-73
2021/08/15 05:55:42;;;;;;;13.77;8.82;;;;;;;28.12;53.10;100240.91;5113745;28;20035;-73
2021/08/15 05:58:10;;;;;;;13.55;9.13;;;;;;;28.36;51.92;100239.50;5113494;28;20044;-73
2021/08/15 06:00:38;;;;;;;15.18;8.70;;;;;;;28.54;51.59;100247.13;5113254;28;20152;-72
2021/08/15 06:03:08;;;;;;;13.43;8.70;;;;;;;28.64;51.24;100244.81;5113410;28;20039;-71
2021/08/15 06:05:39;;;;;;;13.20;8.15;;;;;;;28.94;50.44;100240.63;5113134;28;20070;-71
2021/08/15 06:08:07;;;;;;;13.18;8.48;;;;;;;28.90;50.44;100236.63;5113422;28;20044;-70
2021/08/15 06:10:37;;;;;;;12.60;8.40;;;;;;;29.01;50.30;100235.97;5112872;28;20043;-71
2021/08/15 06:13:06;;;;;;;15.07;8.82;;;;;;;29.19;50.09;100239.97;5113764;28;20055;-71
2021/08/15 06:15:34;;;;;;;14.95;8.77;;;;;;;29.33;48.88;100234.22;5113420;28;20473;-71
2021/08/15 06:18:02;;;;;;;12.43;8.25;;;;;;;29.17;50.15;100245.69;5113289;28;20392;-71
2021/08/15 06:20:32;;;;;;;12.88;8.30;;;;;;;29.30;49.94;100250.31;5113045;28;20043;-72
2021/08/15 06:23:00;;;;;;;13.20;8.65;;;;;;;29.49;49.57;100232.13;5113051;28;20066;-71
2021/08/15 06:25:29;;;;;;;13.52;8.10;;;;;;;29.69;49.13;100237.53;5112731;28;20046;-71
2021/08/15 06:27:57;;;;;;;14.35;8.98;;;;;;;29.91;48.37;100230.66;5113281;28;20078;-71
2021/08/15 06:30:27;;;;;;;15.25;8.88;;;;;;;30.16;47.89;100234.38;5112774;28;20039;-71
2021/08/15 06:32:56;;;;;;;15.38;7.65;;;;;;;30.35;47.62;100238.06;5112993;28;20135;-73
2021/08/15 06:35:26;;;;;;;13.93;8.02;;;;;;;29.92;47.42;100235.13;5112592;28;20044;-73
2021/08/15 06:37:56;;;;;;;12.75;8.20;;;;;;;29.38;48.87;100233.59;5117107;28;20044;-73
2021/08/15 06:40:27;;;;;;;15.60;8.02;;;;;;;29.24;50.10;100242.91;5117027;28;20048;-73
2021/08/15 06:43:05;;;;;;;13.38;7.63;;;;;;;29.65;48.59;100239.91;5117010;28;20040;-72
2021/08/15 06:45:33;;;;;;;13.13;7.75;;;;;;;29.77;47.88;100234.56;5098621;28;20040;-72
2021/08/15 06:48:02;;;;;;;14.30;8.27;;;;;;;30.43;46.31;100234.22;5116756;28;20043;-73
2021/08/15 06:50:30;;;;;;;12.68;8.32;;;;;;;30.77;45.24;100222.75;5116235;28;20541;-73
2021/08/15 06:53:03;;;;;;;14.48;7.97;;;;;;;30.66;45.81;100226.22;5114148;28;20142;-72
2021/08/15 06:55:31;;;;;;;16.48;8.52;;;;;;;30.74;45.50;100225.97;5116298;28;20096;-73
2021/08/15 06:58:00;;;;;;;13.52;8.32;;;;;;;31.12;44.79;100230.50;5116579;28;20112;-72
2021/08/15 07:00:28;;;;;;;13.30;8.18;;;;;;;31.09;44.35;100230.13;5115994;28;20031;-74
2021/08/15 07:02:56;;;;;;;11.48;7.97;;;;;;;30.86;45.07;100225.22;5116979;28;20048;-70
2021/08/15 07:05:29;;;;;;;13.82;8.30;;;;;;;30.82;45.26;100232.25;5116890;28;20051;-70
2021/08/15 07:07:57;;;;;;;14.20;8.10;;;;;;;30.67;44.86;100225.16;5116123;28;20068;-72
2021/08/15 07:10:27;;;;;;;13.10;8.30;;;;;;;30.66;44.73;100226.22;5118638;28;20480;-71
2021/08/15 07:12:58;;;;;;;11.40;7.53;;;;;;;30.65;45.37;100230.06;5117372;28;20039;-72
2021/08/15 07:15:29;;;;;;;13.45;8.13;;;;;;;30.69;45.41;100233.19;5115978;28;20078;-73
2021/08/15 07:17:58;;;;;;;11.93;8.20;;;;;;;30.62;45.61;100236.00;5116072;28;20111;-72
2021/08/15 07:20:26;;;;;;;11.68;7.93;;;;;;;30.44;45.27;100230.41;5116413;28;20043;-73
2021/08/15 07:22:55;;;;;;;13.38;7.05;;;;;;;30.45;46.28;100226.59;5115650;28;20055;-74
2021/08/15 07:25:28;;;;;;;13.15;7.85;;;;;;;30.50;45.97;100229.53;5115727;28;20040;-74
2021/08/15 07:27:59;;;;;;;15.68;8.32;;;;;;;30.66;45.32;100229.00;5115299;28;20035;-74
2021/08/15 07:30:27;;;;;;;12.90;7.65;;;;;;;30.43;45.47;100239.72;5116530;28;20032;-74
2021/08/15 07:32:57;;;;;;;16.35;8.00;;;;;;;30.42;45.24;100232.53;5095636;28;20044;-69
2021/08/15 07:35:26;;;;;;;12.70;8.13;;;;;;;30.65;44.61;100224.56;5115382;28;20055;-71
2021/08/15 07:37:57;;;;;;;12.27;8.10;;;;;;;30.39;46.12;100221.97;5115297;28;20043;-71
2021/08/15 07:40:26;;;;;;;14.27;8.38;;;;;;;30.42;46.21;100227.03;5115818;28;20069;-71
2021/08/15 07:42:55;;;;;;;11.63;7.82;;;;;;;30.45;45.58;100229.34;5115846;28;20442;-70
2021/08/15 07:45:27;;;;;;;11.70;7.97;;;;;;;30.47;45.95;100216.19;5115916;28;20461;-71
2021/08/15 07:47:56;;;;;;;11.70;8.00;;;;;;;30.54;45.82;100222.50;5114274;28;20036;-72
2021/08/15 07:50:25;;;;;;;11.68;7.50;;;;;;;30.62;45.05;100213.97;5097569;28;20127;-73
2021/08/15 07:52:53;;;;;;;12.77;7.97;;;;;;;30.71;44.75;100214.56;5115327;28;20070;-80
2021/08/15 07:55:23;;;;;;;10.60;7.82;;;;;;;30.71;45.78;100214.56;5115757;28;20044;-73
2021/08/15 07:57:51;;;;;;;11.50;8.32;;;;;;;30.73;45.19;100216.03;5097445;28;20051;-77
2021/08/15 08:00:20;;;;;;;11.55;7.90;;;;;;;30.83;43.92;100206.41;5115781;28;20088;-82
2021/08/15 08:02:50;;;;;;;11.38;7.43;;;;;;;30.97;44.39;100205.19;5115164;28;20058;-75
2021/08/15 08:05:19;;;;;;;10.82;7.60;;;;;;;31.09;44.31;100208.91;5115542;28;20477;-76
2021/08/15 08:07:48;;;;;;;10.20;7.30;;;;;;;31.14;43.87;100200.81;5115358;28;20096;-81
2021/08/15 08:10:16;;;;;;;11.50;7.90;;;;;;;31.18;43.57;100202.03;5115428;28;20483;-77
2021/08/15 08:12:45;;;;;;;11.30;7.38;;;;;;;31.17;43.24;100203.09;5115240;28;20043;-74
2021/08/15 08:15:18;;;;;;;12.50;7.63;;;;;;;31.26;42.94;100198.16;5115365;28;20075;-76
2021/08/15 08:17:46;;;;;;;12.25;7.68;;;;;;;31.30;42.82;100191.13;5115029;28;20039;-71
2021/08/15 08:20:17;;;;;;;12.52;7.38;;;;;;;31.50;42.18;100197.25;5097022;28;20109;-72
2021/08/15 08:22:46;;;;;;;11.27;7.00;;;;;;;31.74;41.47;100198.22;5114778;28;20090;-74
2021/08/15 08:25:16;;;;;;;11.43;6.97;;;;;;;31.63;41.71;100196.25;5115108;28;20054;-71
2021/08/15 08:27:45;;;;;;;11.23;7.20;;;;;;;31.61;42.27;100181.84;5114947;28;20067;-75
2021/08/15 08:30:14;;;;;;;10.70;7.63;;;;;;;31.67;41.96;100185.59;5115015;28;20043;-74
2021/08/15 08:32:42;;;;;;;11.07;7.05;;;;;;;31.65;41.57;100180.28;5115307;28;20047;-84
2021/08/15 08:35:11;;;;;;;10.13;6.25;;;;;;;31.60;41.95;100178.25;5115054;28;20392;-73
2021/08/15 08:37:41;;;;;;;12.52;6.97;;;;;;;31.69;41.16;100183.47;5115032;28;20170;-72
2021/08/15 08:40:13;;;;;;;11.07;6.40;;;;;;;31.63;41.67;100179.69;5092721;28;20051;-74
2021/08/15 08:42:43;;;;;;;13.00;7.50;;;;;;;31.59;42.34;100178.50;5113745;28;20047;-72
2021/08/15 08:45:14;;;;;;;12.07;6.72;;;;;;;31.64;42.07;100173.09;5091468;28;20048;-68
2021/08/15 08:47:42;;;;;;;10.50;6.80;;;;;;;31.67;41.75;100169.91;5094437;28;20052;-72
2021/08/15 08:50:12;;;;;;;10.88;6.70;;;;;;;31.68;41.84;100171.59;5094361;28;20374;-74
2021/08/15 08:52:43;;;;;;;9.43;6.35;;;;;;;31.76;40.38;100167.72;5094316;28;20040;-71
2021/08/15 08:55:12;;;;;;;9.73;6.88;;;;;;;31.93;39.75;100165.13;5094365;28;20409;-71
2021/08/15 08:57:40;;;;;;;9.63;6.60;;;;;;;31.95;40.20;100165.75;5094146;28;20507;-69
2021/08/15 09:00:10;;;;;;;11.18;6.93;;;;;;;31.93;40.37;100156.84;5093816;28;20047;-72
2021/08/15 09:02:39;;;;;;;13.60;7.22;;;;;;;31.96;40.56;100150.88;5094151;28;20040;-70
2021/08/15 09:05:09;;;;;;;11.98;7.22;;;;;;;31.97;41.12;100153.41;5093978;28;20040;-70
2021/08/15 09:07:40;;;;;;;13.68;7.60;;;;;;;32.21;40.37;100157.03;5094249;28;20131;-71
2021/08/15 09:10:12;;;;;;;13.18;7.35;;;;;;;32.40;39.68;100142.13;5104985;28;20388;-75
2021/08/15 09:12:44;;;;;;;13.75;7.40;;;;;;;32.50;39.85;100148.97;5113993;28;20055;-75
2021/08/15 09:15:15;;;;;;;14.43;7.93;;;;;;;32.61;39.41;100151.75;5114308;28;20484;-71
2021/08/15 09:17:45;;;;;;;13.05;7.28;;;;;;;32.72;39.23;100150.09;5114258;28;20062;-72
2021/08/15 09:20:15;;;;;;;10.98;7.22;;;;;;;32.81;39.74;100151.38;5113903;28;20043;-75
2021/08/15 09:22:43;;;;;;;10.70;7.28;;;;;;;32.83;39.56;100140.13;5114009;28;20047;-72
2021/08/15 09:25:18;;;;;;;9.77;6.93;;;;;;;32.97;39.14;100145.19;5114249;28;20050;-72
2021/08/15 09:27:48;;;;;;;11.02;7.35;;;;;;;33.22;38.06;100146.84;5114058;28;20503;-72
2021/08/15 09:30:21;;;;;;;11.95;6.20;;;;;;;33.31;36.91;100137.09;5113894;28;20043;-70
2021/08/15 09:32:53;;;;;;;11.68;6.32;;;;;;;33.44;36.51;100142.38;5114125;28;20043;-73
2021/08/15 09:35:28;;;;;;;10.13;6.53;;;;;;;33.53;37.05;100137.28;5114110;28;20052;-73
2021/08/15 09:38:00;;;;;;;11.68;6.30;;;;;;;33.61;36.24;100142.44;5113979;28;20100;-72
2021/08/15 09:40:33;;;;;;;11.30;6.32;;;;;;;33.76;36.26;100133.59;5113136;28;20044;-70
2021/08/15 09:43:03;;;;;;;12.50;5.95;;;;;;;33.80;35.62;100140.31;5111654;28;20412;-71
2021/08/15 09:45:51;;;;;;;10.40;5.95;;;;;;;33.76;35.12;100128.06;5112522;28;20037;-72
2021/08/15 09:48:25;;;;;;;9.85;6.32;;;;;;;33.75;36.00;100131.91;5109672;28;20040;-74
2021/08/15 09:51:15;;;;;;;13.27;6.90;;;;;;;33.62;36.30;100126.69;5111749;28;20039;-74
2021/08/15 09:53:46;;;;;;;9.75;5.95;;;;;;;33.72;36.20;100124.09;5111157;28;20043;-76
2021/08/15 09:56:17;;;;;;;10.73;5.70;;;;;;;33.68;36.45;100122.91;5113245;28;20096;-76
2021/08/15 09:58:45;;;;;;;8.43;5.68;;;;;;;33.71;35.78;100117.75;5113677;28;20134;-76
2021/08/15 10:01:13;;;;;;;10.50;5.55;;;;;;;33.62;35.58;100115.63;5112948;28;20057;-80
2021/08/15 10:03:42;;;;;;;8.77;5.40;;;;;;;33.68;33.93;100117.38;5113596;28;20043;-71
2021/08/15 10:06:15;;;;;;;10.00;5.20;;;;;;;33.72;34.88;100110.28;5113350;28;20096;-70
2021/08/15 10:08:47;;;;;;;9.25;5.57;;;;;;;33.77;35.00;100108.44;5114771;28;20097;-71
2021/08/15 10:11:16;;;;;;;11.27;5.25;;;;;;;33.88;34.85;100104.00;5115994;28;20050;-72
2021/08/15 10:13:47;;;;;;;12.13;6.00;;;;;;;33.89;35.44;100097.38;5114560;28;20446;-73
2021/08/15 10:16:17;;;;;;;8.25;5.95;;;;;;;34.01;34.80;100102.81;5113351;28;20138;-74
2021/08/15 10:18:52;;;;;;;11.32;5.70;;;;;;;33.98;34.75;100090.34;5113384;28;20043;-70
2021/08/15 10:21:22;;;;;;;8.15;5.88;;;;;;;33.96;34.85;100092.50;5112384;28;20057;-71
2021/08/15 10:23:51;;;;;;;12.88;6.03;;;;;;;34.01;34.01;100092.59;5113551;28;20047;-76
2021/08/15 10:26:41;;;;;;;8.82;6.18;;;;;;;34.07;34.51;100091.59;5113115;28;20100;-70
2021/08/15 10:29:33;;;;;;;11.32;5.40;;;;;;;34.22;33.33;100081.88;5113080;28;20480;-70
2021/08/15 10:32:16;;;;;;;8.00;5.75;;;;;;;34.17;33.27;100088.19;5115086;28;20056;-70
2021/08/15 10:35:13;;;;;;;9.43;5.88;;;;;;;34.04;33.68;100082.94;5112891;28;20069;-75
2021/08/15 10:37:44;;;;;;;9.65;5.43;;;;;;;34.05;34.45;100082.69;5103766;28;20040;-74
2021/08/15 10:40:59;;;;;;;11.07;5.65;;;;;;;33.91;33.85;100081.34;5112307;28;20093;-72
2021/08/15 10:44:09;;;;;;;9.38;5.63;;;;;;;33.97;34.48;100083.13;5113074;28;20403;-71
2021/08/15 10:47:10;;;;;;;11.23;5.47;;;;;;;34.06;33.70;100073.28;5112939;28;20485;-71
2021/08/15 10:49:51;;;;;;;9.77;5.40;;;;;;;34.08;33.67;100071.16;5113097;28;20047;-76
2021/08/15 10:52:34;;;;;;;10.80;5.53;;;;;;;34.20;33.17;100073.81;5113150;28;20122;-74
2021/08/15 10:55:08;;;;;;;9.20;5.75;;;;;;;34.18;34.16;100069.63;5113270;28;20054;-74
2021/08/15 10:57:51;;;;;;;9.52;5.95;;;;;;;34.29;33.70;100060.41;5113125;28;20100;-75
2021/08/15 11:00:43;;;;;;;6.88;4.97;;;;;;;34.31;33.58;100058.22;5112685;28;20044;-77
2021/08/15 11:03:36;;;;;;;9.98;5.25;;;;;;;34.57;32.75;100049.25;5112715;28;20043;-76
2021/08/15 11:06:27;;;;;;;8.70;5.07;;;;;;;34.62;32.12;100043.75;5110953;28;20537;-80
2021/08/15 11:08:56;;;;;;;10.73;6.22;;;;;;;34.69;32.12;100049.13;5109815;28;20036;-78
2021/08/15 11:11:30;;;;;;;12.30;5.90;;;;;;;34.68;32.46;100037.22;5093137;28;20127;-77
2021/08/15 11:14:24;;;;;;;10.20;5.40;;;;;;;34.42;32.18;100049.00;5110441;28;20089;-74
2021/08/15 11:16:55;;;;;;;8.05;5.22;;;;;;;34.33;32.44;100045.78;5110016;28;20485;-71
2021/08/15 11:19:30;;;;;;;10.63;5.18;;;;;;;34.28;33.39;100031.88;5112487;28;20046;-74
2021/08/15 11:22:26;;;;;;;8.30;4.93;;;;;;;34.27;33.12;100040.44;5100907;28;20035;-74
2021/08/15 11:25:02;;;;;;;12.25;5.60;;;;;;;34.14;32.87;100028.59;5095891;28;20068;-73
2021/08/15 11:27:36;;;;;;;13.05;5.13;;;;;;;34.02;34.68;100032.56;5095908;28;20044;-73
2021/08/15 11:30:09;;;;;;;10.55;5.20;;;;;;;34.14;32.19;100028.59;5096346;28;20387;-73
2021/08/15 11:32:37;;;;;;;11.07;5.60;;;;;;;34.01;32.59;100031.72;5095865;28;20135;-76